AirNav   Everest Fuels
 
 1218 users online  

CL16 Turner Field Amphibious Base Heliport
Coronado, California, USA

GOING TO CORONADO?


FAA INFORMATION EFFECTIVE 08 SEPTEMBER 2022

Location

FAA Identifier: CL16
Lat/Long: 32-40-41.8700N 117-09-20.0600W
32-40.697833N 117-09.334333W
32.6782972,-117.1555722
(estimated)
Elevation: 0 ft. / 0 m (estimated)
Variation: 14E (1985)
From city: 3 miles SE of CORONADO, CA
Time zone: UTC -7 (UTC -8 during Standard Time)
Zip code: 92118

Heliport Operations

Heliport use: Private use. Permission required prior to landing
Control tower: no
ARTCC: LOS ANGELES CENTER
FSS: SAN DIEGO FLIGHT SERVICE STATION
NOTAMs facility: SAN (NOTAM-D service not available)
Attendance: MON-FRI 1600-0600Z++
SAT, SUN AND HOL WITH CO APVL ONLY.
Segmented circle: no

Heliport Communications

WX ASOS at SAN (4 nm NW): PHONE 619-296-8934
WX ASOS at NRS (7 nm S): PHONE 619-437-9890
WX ASOS at MYF (8 nm N): 126.9 (858-576-4337)
WX ASOS at SDM (11 nm SE): 132.35 (619-661-8297)
WX AWOS-3P at SEE (13 nm NE): 125.45 (619-449-1228)

Nearby radio navigation aids

VOR radial/distance  VOR name  Freq  Var
MZBr136/7.2MISSION BAY VORTAC117.8015E
PGYr281/9.8POGGI VORTAC116.4514E
TIJr297/13.2TIJUANA VOR/DME116.5012E
OCNr144/36.2OCEANSIDE VORTAC115.3015E
JLIr211/39.9JULIAN VORTAC114.0015E

Heliport Services

Runway Information

Helipad H1

Dimensions: 100 x 100 ft. / 30 x 30 m
Surface: asphalt
Latitude: 32-40.697833N
Longitude: 117-09.334333W
Elevation: 0.0 ft.
Traffic pattern: leftleft

Heliport Ownership and Management from official FAA records

Ownership: U.S. Army
Owner: NAVAL AMPHIBIOUS BAS CORONADO
Phone 619-437-2505

Additional Remarks

LNDG/TKOF CLNC BY STD LGT GUN SIGNALS.
RSTD: PPR NAB OIC 619-437-2075, C619-607-2696 (72 HR NOTICE). MEDIUM LIFT OR SMALLER COPTER AUTH. HVY LIFT COPTER OPS RQR 10 DAY PRIOR NOTICE. TILT ROTOR OPS PROHIBITED.
CAUTION: EXTSV HEL/FIXED WING ACFT ACT WI A 5 NM RDS. ADVS NORTH ISLAND TWR PPR NR AND IF ETA VARIES MORE THAN 15 MIN.
COMMUNICATIONS: NORTH ISLAND TWR (E) 135.1 336.4 340.2
FOR CD CTC LOS ANGELES ARTCC AT 661-575-2079.

Instrument Procedures

There are no published instrument procedures at CL16.

Some nearby airports with instrument procedures:

KNZY - North Island Naval Air Station (Halsey Field) Airport (3 nm W)
KSAN - San Diego International Airport (4 nm NW)
KNRS - Imperial Beach Naval Outlying Field (Ream Field) (7 nm S)
KMYF - Montgomery-Gibbs Executive Airport (8 nm N)
KSDM - Brown Field Municipal Airport (11 nm SE)
KNKX - Miramar MCAS (Joe Foss Field) Airport (11 nm N)
KSEE - Gillespie Field Airport (13 nm NE)
 
Loc | Ops | Rwys | IFR | FBO | Links
Com | Nav | Svcs | Stats | Notes
Area around CL16 (Turner Field Amphibious Base Heliport)
 
Road maps at: MapQuest Bing Google
 
Aerial photo
No photo
 
Sectional chart

 
Airport distance calculator
Flying to Turner Field Amphibious Base Heliport? Find the distance to fly.

From to CL16

Sunrise and sunset
Times for 03-Oct-2022
 Local
(UTC-7)
 Zulu
(UTC)
Morning civil twilight06:2113:21
Sunrise06:4513:45
Sunset18:3001:30
Evening civil twilight18:5501:55

Current date and time
Zulu (UTC)  04-Oct-2022 00:37:11
Local (UTC-7)  03-Oct-2022 17:37:11
 
METAR
KNZY 
3nm NW 
032352Z 28008KT 10SM SCT014 SCT050 21/16 A2990 RMK AO2 SLP125 T02110161 10228 20211 58004
KSAN 
4nm NW 
032351Z 30008KT 10SM BKN016 BKN050 21/16 A2992 RMK AO2 SLP132 T02110161 10228 20211 56004
KNRS 
7nm S 
032353Z 28009KT 10SM SCT016 SCT050 21/16 A2992 RMK AO2 SLP131 T02060161 10222 20206 56010
KMYF 
8nm N 
032353Z 29008KT 10SM CLR 22/17 A2991 RMK AO2 SLP124 T02170167 10233 20211 56011
KSDM 
10nm SE 
032353Z 28009KT 10SM SCT015 21/16 A2991 RMK AO2 SLP125 T02110161 10239 20211 56009
KNKX 
11nm N 
032355Z 31008KT 10SM CLR 21/17 A2991 RMK AO2 SLP122 T02110167 10233 20206 56010
KSEE 
13nm NE 
032347Z 28011KT 10SM SKC 25/17 A2990
MMTJ 
13nm SE 
032344Z 23009KT 10SM FEW025 21/17 A2994 RMK SLP139 57029 985 8/100 HZY ST W
TAF
KNZY 
3nm NW 
0323/0423 29010KT 9999 BKN015 QNH2987INS TEMPO 0323/0403 SCT015 SCT050 FM040300 32005KT 9999 OVC012 QNH2988INS TEMPO 0410/0416 OVC009 BECMG 0417/0418 28008KT 9999 SCT012 SCT050 QNH2987INS T20/0414Z T24/0421Z FS30139
KSAN 
4nm NW 
040008Z 0400/0506 30008KT P6SM BKN015 FM040040 29007KT P6SM SCT015 FM040300 VRB04KT P6SM OVC012 FM041900 28008KT P6SM SCT015 FM050300 VRB04KT P6SM OVC010
KNKX 
11nm N 
0321/0421 29008KT 9999 SCT020 QNH2988INS BECMG 0403/0405 VRB05KT 9999 OVC015 QNH2989INS BECMG 0416/0418 VRB05KT 9999 SCT015 QNH2987INS FM041930 30007KT FEW020 QNH2988INS T17/0413Z T26/0420Z
MMTJ 
13nm SE 
031714Z 0318/0424 30012KT P6SM BKN015 TX22/0319Z TN18/0412Z FM032000 33010KT 6SM HZ SCT020 SCT250 FM040600 30006KT P6SM BKN020 FM040800 00000KT 6SM HZ OVC015 TEMPO 0411/0415 4SM HZ BKN012 FM041800 26008KT P6SM SCT030 SCT250
NOTAMs
Click for the latest NOTAMs
NOTAMs are issued by the DoD/FAA and will open in a separate window not controlled by AirNav.

 

 
 

Would you like to see your business listed on this page?

 If your business provides an interesting product or service to pilots, flight crews, aircraft, or users of the Turner Field Amphibious Base Heliport, you should consider listing it here.  To start the listing process, click on the button below
 
Add a business
 

Other Pages about Turner Field Amphibious Base Heliport

Update a link
 
Copyright © AirNav, LLC. All rights reserved. Privacy Policy  Contact